Reston, Virginia
Current Conditions -  °F | °C
As of 3:52 AM on Thursday 18 Dec 2014 (Local Time) from KIAD Reporting Station
Broken Clouds Broken Clouds  
Wind Chill: 31°   Ceiling: 4200
Heat Index: 35°   Visibility: 10mi
Dew Point: 21°   Wind: 5mph
Humidity: 57%   Direction: 310°NW
Pressure: 30.12"   Gusts: NA
Location:  38.96°N, 77.35°W
Report Text: KIAD 180852Z 31004KT 10SM BKN042 02/M06 A3012 RMK AO2 SLP200 T00171061 53010
Loading
Personal Weather Stations






























Interactive Weather Map New forecast layout! Learn more

10-Day Weather Forecast

Advertisements
Track Severe Weather on mobile